Time,TemperatureF,DewpointF,PressureIn,WindDirection,WindDirectionDegrees,WindSpeedMPH,WindSpeedGustMPH,Humidity,HourlyPrecipIn,Conditions,Clouds,dailyrainin,SoftwareType,DateUTC
2013-02-20 00:00:00,42.9,23.6,30.14,East,98,7.0,10.0,46,0.00,,---,0.00,VWS V14.01,2013-02-20 06:00:00,
2013-02-20 00:05:00,42.9,23.0,30.14,ENE,77,5.0,11.0,45,0.00,,---,0.00,VWS V14.01,2013-02-20 06:05:00,
2013-02-20 00:10:00,42.9,23.0,30.14,East,97,3.0,10.0,45,0.00,,---,0.00,VWS V14.01,2013-02-20 06:10:00,
2013-02-20 00:15:00,42.9,23.6,30.14,East,97,4.0,8.0,46,0.00,,---,0.00,VWS V14.01,2013-02-20 06:15:00,
2013-02-20 00:20:00,42.9,23.6,30.14,ESE,113,3.0,11.0,46,0.00,,---,0.00,VWS V14.01,2013-02-20 06:20:00,
2013-02-20 00:25:00,42.8,23.5,30.14,East,89,5.0,10.0,46,0.00,,---,0.00,VWS V14.01,2013-02-20 06:25:00,
2013-02-20 00:30:00,42.8,24.0,30.12,ENE,68,7.0,10.0,47,0.00,,---,0.00,VWS V14.01,2013-02-20 06:30:00,
2013-02-20 00:35:00,42.8,24.0,30.12,East,87,6.0,10.0,47,0.00,,---,0.00,VWS V14.01,2013-02-20 06:35:00,
2013-02-20 00:40:00,42.8,24.0,30.12,East,98,10.0,12.0,47,0.00,,---,0.00,VWS V14.01,2013-02-20 06:40:00,
2013-02-20 00:45:00,42.8,24.0,30.12,ESE,103,11.0,11.0,47,0.00,,---,0.00,VWS V14.01,2013-02-20 06:45:00,
2013-02-20 00:50:00,42.8,24.0,30.12,ESE,104,11.0,11.0,47,0.00,,---,0.00,VWS V14.01,2013-02-20 06:50:00,
2013-02-20 00:55:00,42.8,23.5,30.12,East,79,5.0,11.0,46,0.00,,---,0.00,VWS V14.01,2013-02-20 06:55:00,
2013-02-20 01:00:00,42.6,23.3,30.12,ESE,110,8.0,9.0,46,0.00,,---,0.00,VWS V14.01,2013-02-20 07:00:00,
2013-02-20 01:05:00,42.6,23.8,30.12,East,101,6.0,10.0,47,0.00,,---,0.00,VWS V14.01,2013-02-20 07:05:00,
2013-02-20 01:10:00,42.6,23.3,30.12,ESE,103,5.0,11.0,46,0.00,,---,0.00,VWS V14.01,2013-02-20 07:10:00,
2013-02-20 01:15:00,42.6,23.3,30.11,East,84,6.0,11.0,46,0.00,,---,0.00,VWS V14.01,2013-02-20 07:15:00,
2013-02-20 01:20:00,42.6,23.3,30.11,ESE,115,10.0,12.0,46,0.00,,---,0.00,VWS V14.01,2013-02-20 07:20:00,
2013-02-20 01:25:00,42.5,23.2,30.11,East,92,10.0,10.0,46,0.00,,---,0.00,VWS V14.01,2013-02-20 07:25:00,
2013-02-20 01:30:00,42.5,23.2,30.11,East,100,7.0,11.0,46,0.00,,---,0.00,VWS V14.01,2013-02-20 07:30:00,
2013-02-20 01:35:00,42.5,23.7,30.11,ESE,102,3.0,10.0,47,0.00,,---,0.00,VWS V14.01,2013-02-20 07:35:00,
2013-02-20 01:40:00,42.5,23.2,30.11,East,98,5.0,14.0,46,0.00,,---,0.00,VWS V14.01,2013-02-20 07:40:00,
2013-02-20 01:45:00,42.5,23.2,30.11,East,97,5.0,11.0,46,0.00,,---,0.00,VWS V14.01,2013-02-20 07:45:00,
2013-02-20 01:55:00,42.5,23.7,30.11,East,89,3.0,10.0,47,0.00,,---,0.00,VWS V14.01,2013-02-20 07:55:00,
2013-02-20 02:00:00,42.5,23.7,30.12,ESE,106,5.0,9.0,47,0.00,,---,0.00,VWS V14.01,2013-02-20 08:00:00,
2013-02-20 02:05:00,42.5,23.7,30.12,ESE,103,5.0,6.0,47,0.00,,---,0.00,VWS V14.01,2013-02-20 08:05:00,
2013-02-20 02:10:00,42.5,23.2,30.12,East,96,6.0,11.0,46,0.00,,---,0.00,VWS V14.01,2013-02-20 08:10:00,
2013-02-20 02:15:00,42.5,23.2,30.11,East,99,6.0,10.0,46,0.00,,---,0.00,VWS V14.01,2013-02-20 08:15:00,
2013-02-20 02:20:00,42.5,22.7,30.11,ESE,103,6.0,12.0,45,0.00,,---,0.00,VWS V14.01,2013-02-20 08:20:00,
2013-02-20 02:25:00,42.5,23.2,30.11,SE,143,3.0,8.0,46,0.00,,---,0.00,VWS V14.01,2013-02-20 08:25:00,
2013-02-20 02:30:00,42.5,24.2,30.13,SSE,156,4.0,6.0,48,0.00,,---,0.00,VWS V14.01,2013-02-20 08:30:00,
2013-02-20 02:35:00,42.3,23.5,30.13,SE,145,2.0,5.0,47,0.00,,---,0.00,VWS V14.01,2013-02-20 08:35:00,
2013-02-20 02:40:00,42.3,24.5,30.13,SE,142,6.0,7.0,49,0.00,,---,0.00,VWS V14.01,2013-02-20 08:40:00,
2013-02-20 02:45:00,42.2,24.9,30.13,South,169,2.0,7.0,50,0.00,,---,0.00,VWS V14.01,2013-02-20 08:45:00,
2013-02-20 02:50:00,41.9,26.9,30.13,ESE,120,1.0,10.0,55,0.00,,---,0.00,VWS V14.01,2013-02-20 08:50:00,
2013-02-20 02:55:00,41.6,28.8,30.13,SSE,152,3.0,14.0,60,0.00,,---,0.00,VWS V14.01,2013-02-20 08:55:00,
2013-02-20 03:00:00,41.1,29.5,30.13,South,169,3.0,10.0,63,0.00,,---,0.00,VWS V14.01,2013-02-20 09:00:00,
2013-02-20 03:05:00,40.6,30.5,30.13,SSE,148,4.0,12.0,67,0.01,,---,0.01,VWS V14.01,2013-02-20 09:05:00,
2013-02-20 03:10:00,40.1,31.5,30.13,SSE,154,1.0,9.0,71,0.01,,---,0.01,VWS V14.01,2013-02-20 09:10:00,
2013-02-20 03:15:00,39.6,32.0,30.14,SSE,149,3.0,7.0,74,0.02,,---,0.02,VWS V14.01,2013-02-20 09:15:00,
2013-02-20 03:20:00,39.3,32.4,30.14,SE,140,2.0,12.0,76,0.02,,---,0.02,VWS V14.01,2013-02-20 09:20:00,
2013-02-20 03:25:00,39.2,32.9,30.14,SE,144,2.0,6.0,78,0.02,,---,0.02,VWS V14.01,2013-02-20 09:25:00,
2013-02-20 03:30:00,38.9,33.0,30.14,SE,144,5.0,10.0,79,0.02,,---,0.02,VWS V14.01,2013-02-20 09:30:00,
2013-02-20 03:35:00,38.6,33.3,30.14,SSE,148,3.0,10.0,81,0.02,,---,0.02,VWS V14.01,2013-02-20 09:35:00,
2013-02-20 03:40:00,38.3,33.3,30.14,SE,135,7.0,13.0,82,0.03,,---,0.03,VWS V14.01,2013-02-20 09:40:00,
2013-02-20 03:45:00,38.2,33.2,30.14,SE,139,2.0,15.0,82,0.03,,---,0.03,VWS V14.01,2013-02-20 09:45:00,
2013-02-20 03:50:00,38.0,33.3,30.14,SE,131,3.0,11.0,83,0.03,,---,0.03,VWS V14.01,2013-02-20 09:50:00,
2013-02-20 03:55:00,37.9,33.5,30.14,SE,144,10.0,17.0,84,0.03,,---,0.03,VWS V14.01,2013-02-20 09:55:00,
2013-02-20 04:00:00,37.8,33.7,30.14,SE,137,4.0,12.0,85,0.03,,---,0.03,VWS V14.01,2013-02-20 10:00:00,
2013-02-20 04:05:00,37.6,33.8,30.14,SE,136,9.0,14.0,86,0.03,,---,0.03,VWS V14.01,2013-02-20 10:05:00,
2013-02-20 04:10:00,37.3,33.5,30.14,SE,141,8.0,12.0,86,0.02,,---,0.03,VWS V14.01,2013-02-20 10:10:00,
2013-02-20 04:15:00,37.3,33.8,30.14,SE,145,6.0,10.0,87,0.03,,---,0.04,VWS V14.01,2013-02-20 10:15:00,
2013-02-20 04:20:00,37.2,33.7,30.14,SE,132,4.0,9.0,87,0.02,,---,0.04,VWS V14.01,2013-02-20 10:20:00,
2013-02-20 04:25:00,36.6,33.1,30.14,SE,128,5.0,13.0,87,0.02,,---,0.04,VWS V14.01,2013-02-20 10:25:00,
2013-02-20 04:40:00,36.3,33.1,30.14,SE,132,4.0,6.0,88,0.03,,---,0.05,VWS V14.01,2013-02-20 10:40:00,
2013-02-20 04:41:00,36.2,32.7,30.14,ESE,117,4.0,11.0,87,0.02,,---,0.04,VWS V14.01,2013-02-20 10:41:00,
2013-02-20 04:46:00,36.2,33.0,30.14,SE,126,5.0,10.0,88,0.02,,---,0.04,VWS V14.01,2013-02-20 10:46:00,
2013-02-20 04:50:00,35.9,32.7,30.14,ESE,106,10.0,11.0,88,0.02,,---,0.05,VWS V14.01,2013-02-20 10:50:00,
2013-02-20 04:55:00,35.5,32.6,30.14,ESE,103,9.0,11.0,89,0.02,,---,0.05,VWS V14.01,2013-02-20 10:55:00,
2013-02-20 04:56:00,36.2,33.0,30.14,ESE,104,9.0,11.0,88,0.02,,---,0.05,VWS V14.01,2013-02-20 10:56:00,
2013-02-20 05:00:00,35.2,32.3,30.13,ESE,109,5.0,11.0,89,0.02,,---,0.05,VWS V14.01,2013-02-20 11:00:00,
2013-02-20 05:05:00,34.9,32.0,30.13,ESE,107,3.0,6.0,89,0.02,,---,0.05,VWS V14.01,2013-02-20 11:05:00,
2013-02-20 05:15:00,34.3,31.4,30.14,ESE,103,1.0,4.0,89,0.02,,---,0.05,VWS V14.01,2013-02-20 11:15:00,
2013-02-20 05:20:00,34.0,31.4,30.14,ESE,103,3.0,3.0,90,0.02,,---,0.06,VWS V14.01,2013-02-20 11:20:00,
2013-02-20 05:21:00,34.6,31.7,30.13,ESE,103,2.0,4.0,89,0.02,,---,0.05,VWS V14.01,2013-02-20 11:21:00,
2013-02-20 05:30:00,34.0,31.4,30.15,East,96,2.0,4.0,90,0.02,,---,0.06,VWS V14.01,2013-02-20 11:30:00,
2013-02-20 05:36:00,34.0,31.4,30.14,ESE,103,0.0,4.0,90,0.02,,---,0.06,VWS V14.01,2013-02-20 11:36:00,
2013-02-20 05:40:00,34.0,31.6,30.15,East,85,3.0,5.0,91,0.02,,---,0.06,VWS V14.01,2013-02-20 11:40:00,
2013-02-20 05:45:00,34.0,31.6,30.15,East,101,4.0,5.0,91,0.01,,---,0.06,VWS V14.01,2013-02-20 11:45:00,
2013-02-20 05:46:00,34.0,31.4,30.15,East,96,4.0,5.0,90,0.02,,---,0.06,VWS V14.01,2013-02-20 11:46:00,
2013-02-20 06:01:00,34.0,31.6,30.15,East,97,2.0,5.0,91,0.01,,---,0.06,VWS V14.01,2013-02-20 12:01:00,
2013-02-20 06:05:00,33.5,31.2,30.15,East,98,2.0,2.0,91,0.02,,---,0.07,VWS V14.01,2013-02-20 12:05:00,
2013-02-20 06:07:00,33.8,31.5,30.15,East,84,6.0,6.0,91,0.01,,---,0.06,VWS V14.01,2013-02-20 12:07:00,
2013-02-20 06:20:00,32.9,30.6,30.16,ESE,110,5.0,7.0,91,0.02,,---,0.07,VWS V14.01,2013-02-20 12:20:00,
2013-02-20 06:21:00,33.5,31.2,30.15,East,99,4.0,5.0,91,0.02,,---,0.07,VWS V14.01,2013-02-20 12:21:00,
2013-02-20 06:26:00,33.2,30.9,30.16,ESE,115,4.0,6.0,91,0.02,,---,0.07,VWS V14.01,2013-02-20 12:26:00,
2013-02-20 06:36:00,32.8,30.5,30.16,ESE,107,3.0,5.0,91,0.01,,---,0.07,VWS V14.01,2013-02-20 12:36:00,
2013-02-20 06:41:00,32.5,30.2,30.16,ESE,108,5.0,5.0,91,0.01,,---,0.07,VWS V14.01,2013-02-20 12:41:00,
2013-02-20 06:46:00,32.4,30.1,30.16,East,101,2.0,5.0,91,0.01,,---,0.07,VWS V14.01,2013-02-20 12:46:00,
2013-02-20 06:51:00,32.4,30.3,30.16,ESE,105,3.0,9.0,92,0.01,,---,0.07,VWS V14.01,2013-02-20 12:51:00,
2013-02-20 06:56:00,32.4,30.3,30.15,ESE,117,4.0,7.0,92,0.01,,---,0.07,VWS V14.01,2013-02-20 12:56:00,
2013-02-20 07:01:00,32.4,30.3,30.15,ESE,104,7.0,7.0,92,0.01,,---,0.07,VWS V14.01,2013-02-20 13:01:00,
2013-02-20 07:05:00,32.4,30.3,30.15,ESE,110,5.0,6.0,92,0.01,,---,0.08,VWS V14.01,2013-02-20 13:05:00,
2013-02-20 07:06:00,32.4,30.3,30.15,ESE,122,4.0,7.0,92,0.02,,---,0.08,VWS V14.01,2013-02-20 13:06:00,
2013-02-20 07:10:00,32.4,30.3,30.15,ESE,121,4.0,8.0,92,0.01,,---,0.08,VWS V14.01,2013-02-20 13:10:00,
2013-02-20 07:11:00,32.4,30.3,30.15,ESE,105,4.0,5.0,92,0.02,,---,0.08,VWS V14.01,2013-02-20 13:11:00,
2013-02-20 07:26:00,32.2,30.1,30.16,ESE,117,5.0,7.0,92,0.01,,---,0.08,VWS V14.01,2013-02-20 13:26:00,
2013-02-20 07:31:00,32.2,30.1,30.16,East,98,2.0,6.0,92,0.01,,---,0.08,VWS V14.01,2013-02-20 13:31:00,
2013-02-20 07:35:00,32.2,30.1,30.16,ESE,111,3.0,8.0,92,0.01,,---,0.08,VWS V14.01,2013-02-20 13:35:00,
2013-02-20 07:36:00,32.2,30.1,30.16,ESE,105,6.0,6.0,92,0.01,,---,0.08,VWS V14.01,2013-02-20 13:36:00,
2013-02-20 07:40:00,32.2,30.1,30.16,ESE,109,2.0,9.0,92,0.01,,---,0.08,VWS V14.01,2013-02-20 13:40:00,
2013-02-20 07:41:00,32.2,30.1,30.16,ESE,110,5.0,7.0,92,0.01,,---,0.08,VWS V14.01,2013-02-20 13:41:00,
2013-02-20 07:56:00,32.2,30.1,30.15,ESE,110,2.0,6.0,92,0.01,,---,0.08,VWS V14.01,2013-02-20 13:56:00,
2013-02-20 08:00:00,32.2,30.1,30.16,ESE,112,2.0,8.0,92,0.00,,---,0.08,VWS V14.01,2013-02-20 14:00:00,
2013-02-20 08:01:00,32.4,30.3,30.15,ESE,111,5.0,5.0,92,0.01,,---,0.08,VWS V14.01,2013-02-20 14:01:00,
2013-02-20 08:05:00,32.2,30.1,30.16,East,94,2.0,6.0,92,0.01,,---,0.09,VWS V14.01,2013-02-20 14:05:00,
2013-02-20 08:06:00,32.4,30.3,30.15,ESE,108,6.0,11.0,92,0.01,,---,0.08,VWS V14.01,2013-02-20 14:06:00,
2013-02-20 08:10:00,32.4,30.3,30.16,ESE,115,4.0,7.0,92,0.01,,---,0.09,VWS V14.01,2013-02-20 14:10:00,
2013-02-20 08:25:00,32.5,30.4,30.15,ESE,113,5.0,10.0,92,0.01,,---,0.09,VWS V14.01,2013-02-20 14:25:00,
2013-02-20 08:26:00,32.4,30.3,30.15,ESE,114,5.0,7.0,92,0.01,,---,0.09,VWS V14.01,2013-02-20 14:26:00,
2013-02-20 08:31:00,32.4,30.3,30.15,East,86,3.0,9.0,92,0.01,,---,0.09,VWS V14.01,2013-02-20 14:31:00,
2013-02-20 08:35:00,32.5,30.4,30.16,ESE,110,4.0,8.0,92,0.01,,---,0.09,VWS V14.01,2013-02-20 14:35:00,
2013-02-20 08:40:00,32.5,30.4,30.16,ESE,104,3.0,8.0,92,0.01,,---,0.09,VWS V14.01,2013-02-20 14:40:00,
2013-02-20 08:41:00,32.5,30.4,30.16,ESE,118,2.0,6.0,92,0.01,,---,0.09,VWS V14.01,2013-02-20 14:41:00,
2013-02-20 08:56:00,32.5,30.7,30.16,ESE,109,6.0,9.0,93,0.01,,---,0.09,VWS V14.01,2013-02-20 14:56:00,
2013-02-20 09:01:00,32.5,30.4,30.16,ESE,123,4.0,8.0,92,0.01,,---,0.09,VWS V14.01,2013-02-20 15:01:00,
2013-02-20 09:06:00,32.7,30.9,30.16,ESE,123,7.0,11.0,93,0.01,,---,0.09,VWS V14.01,2013-02-20 15:06:00,
2013-02-20 09:10:00,32.7,30.9,30.16,ENE,69,7.0,9.0,93,0.00,,---,0.09,VWS V14.01,2013-02-20 15:10:00,
2013-02-20 09:11:00,32.7,30.9,30.16,ESE,117,5.0,8.0,93,0.01,,---,0.09,VWS V14.01,2013-02-20 15:11:00,
2013-02-20 09:16:00,32.7,31.4,30.16,East,95,7.0,9.0,95,0.01,,---,0.09,VWS V14.01,2013-02-20 15:16:00,
2013-02-20 09:20:00,32.8,31.0,30.15,East,83,11.0,11.0,93,0.00,,---,0.09,VWS V14.01,2013-02-20 15:20:00,
2013-02-20 09:25:00,32.8,31.0,30.15,ESE,110,7.0,11.0,93,0.01,,---,0.10,VWS V14.01,2013-02-20 15:25:00,
2013-02-20 09:26:00,32.8,31.0,30.15,ESE,108,10.0,15.0,93,0.00,,---,0.09,VWS V14.01,2013-02-20 15:26:00,
2013-02-20 09:35:00,32.9,31.1,30.15,East,98,8.0,12.0,93,0.01,,---,0.10,VWS V14.01,2013-02-20 15:35:00,
2013-02-20 09:40:00,32.9,31.1,30.15,East,99,7.0,12.0,93,0.01,,---,0.10,VWS V14.01,2013-02-20 15:40:00,
2013-02-20 09:41:00,32.9,31.1,30.15,East,101,12.0,12.0,93,0.01,,---,0.10,VWS V14.01,2013-02-20 15:41:00,
2013-02-20 09:45:00,33.1,31.3,30.13,ESE,105,4.0,11.0,93,0.01,,---,0.10,VWS V14.01,2013-02-20 15:45:00,
2013-02-20 09:55:00,33.2,31.4,30.13,ESE,117,10.0,10.0,93,0.01,,---,0.10,VWS V14.01,2013-02-20 15:55:00,
2013-02-20 10:01:00,33.1,31.3,30.13,East,100,8.0,8.0,93,0.01,,---,0.10,VWS V14.01,2013-02-20 16:01:00,
2013-02-20 10:10:00,33.2,31.4,30.13,ESE,110,5.0,13.0,93,0.02,,---,0.11,VWS V14.01,2013-02-20 16:10:00,
2013-02-20 10:11:00,33.2,31.4,30.13,ESE,113,13.0,13.0,93,0.01,,---,0.10,VWS V14.01,2013-02-20 16:11:00,
2013-02-20 10:16:00,33.2,31.4,30.13,East,82,11.0,14.0,93,0.01,,---,0.10,VWS V14.01,2013-02-20 16:16:00,
2013-02-20 10:20:00,33.2,31.4,30.12,East,86,6.0,12.0,93,0.02,,---,0.11,VWS V14.01,2013-02-20 16:20:00,
2013-02-20 10:26:00,33.2,31.4,30.12,ENE,76,6.0,12.0,93,0.02,,---,0.11,VWS V14.01,2013-02-20 16:26:00,
2013-02-20 10:30:00,33.4,31.6,30.11,ESE,107,9.0,13.0,93,0.01,,---,0.11,VWS V14.01,2013-02-20 16:30:00,
2013-02-20 10:36:00,33.2,31.4,30.12,ESE,109,11.0,16.0,93,0.02,,---,0.11,VWS V14.01,2013-02-20 16:36:00,
2013-02-20 10:46:00,33.4,31.6,30.11,ESE,120,3.0,12.0,93,0.01,,---,0.11,VWS V14.01,2013-02-20 16:46:00,
2013-02-20 10:51:00,33.5,31.7,30.11,East,94,12.0,13.0,93,0.01,,---,0.11,VWS V14.01,2013-02-20 16:51:00,
2013-02-20 10:56:00,33.5,31.7,30.10,ESE,102,6.0,14.0,93,0.01,,---,0.11,VWS V14.01,2013-02-20 16:56:00,
2013-02-20 11:01:00,33.5,31.7,30.10,ESE,114,7.0,13.0,93,0.02,,---,0.12,VWS V14.01,2013-02-20 17:01:00,
2013-02-20 11:06:00,33.7,31.9,30.10,East,98,6.0,17.0,93,0.02,,---,0.12,VWS V14.01,2013-02-20 17:06:00,
2013-02-20 11:11:00,33.7,31.9,30.09,East,98,9.0,13.0,93,0.02,,---,0.12,VWS V14.01,2013-02-20 17:11:00,
2013-02-20 11:16:00,33.7,31.9,30.09,ESE,108,5.0,15.0,93,0.02,,---,0.12,VWS V14.01,2013-02-20 17:16:00,
2013-02-20 11:21:00,33.7,31.9,30.09,ESE,105,5.0,14.0,93,0.02,,---,0.12,VWS V14.01,2013-02-20 17:21:00,
2013-02-20 11:26:00,33.7,31.9,30.09,ESE,116,15.0,15.0,93,0.01,,---,0.12,VWS V14.01,2013-02-20 17:26:00,
2013-02-20 11:31:00,33.7,31.9,30.09,East,99,12.0,17.0,93,0.01,,---,0.12,VWS V14.01,2013-02-20 17:31:00,
2013-02-20 11:36:00,33.8,32.0,30.09,ESE,105,6.0,14.0,93,0.01,,---,0.12,VWS V14.01,2013-02-20 17:36:00,
2013-02-20 11:41:00,33.8,32.0,30.09,ESE,106,14.0,16.0,93,0.02,,---,0.13,VWS V14.01,2013-02-20 17:41:00,
2013-02-20 11:46:00,33.8,32.0,30.09,East,84,4.0,17.0,93,0.02,,---,0.13,VWS V14.01,2013-02-20 17:46:00,
2013-02-20 11:51:00,34.0,32.2,30.09,ESE,104,6.0,18.0,93,0.02,,---,0.13,VWS V14.01,2013-02-20 17:51:00,
2013-02-20 11:56:00,34.0,32.2,30.08,East,97,4.0,13.0,93,0.02,,---,0.13,VWS V14.01,2013-02-20 17:56:00,
2013-02-20 12:01:00,34.0,32.2,30.08,ESE,112,4.0,12.0,93,0.02,,---,0.13,VWS V14.01,2013-02-20 18:01:00,
2013-02-20 12:06:00,34.0,32.2,30.08,ESE,113,7.0,15.0,93,0.01,,---,0.13,VWS V14.01,2013-02-20 18:06:00,
2013-02-20 12:11:00,34.0,32.2,30.09,ESE,103,10.0,15.0,93,0.01,,---,0.13,VWS V14.01,2013-02-20 18:11:00,
2013-02-20 12:16:00,33.8,32.0,30.09,East,96,6.0,14.0,93,0.01,,---,0.13,VWS V14.01,2013-02-20 18:16:00,
2013-02-20 12:21:00,34.0,32.2,30.09,ESE,110,4.0,14.0,93,0.02,,---,0.14,VWS V14.01,2013-02-20 18:21:00,
2013-02-20 12:26:00,34.0,32.2,30.08,ENE,58,8.0,11.0,93,0.02,,---,0.14,VWS V14.01,2013-02-20 18:26:00,
2013-02-20 12:31:00,34.0,31.9,30.08,SE,127,9.0,19.0,92,0.02,,---,0.14,VWS V14.01,2013-02-20 18:31:00,
2013-02-20 12:36:00,34.0,32.2,30.08,ENE,62,5.0,14.0,93,0.02,,---,0.14,VWS V14.01,2013-02-20 18:36:00,
2013-02-20 12:41:00,34.0,31.9,30.07,East,101,5.0,14.0,92,0.02,,---,0.14,VWS V14.01,2013-02-20 18:41:00,
2013-02-20 12:46:00,34.0,31.9,30.07,East,101,5.0,12.0,92,0.01,,---,0.14,VWS V14.01,2013-02-20 18:46:00,
2013-02-20 12:51:00,34.1,32.0,30.07,East,91,2.0,14.0,92,0.01,,---,0.14,VWS V14.01,2013-02-20 18:51:00,
2013-02-20 12:56:00,34.1,32.0,30.06,ESE,113,12.0,12.0,92,0.01,,---,0.14,VWS V14.01,2013-02-20 18:56:00,
2013-02-20 13:01:00,34.1,32.0,30.06,ENE,77,6.0,16.0,92,0.02,,---,0.15,VWS V14.01,2013-02-20 19:01:00,
2013-02-20 13:06:00,34.3,32.5,30.06,East,96,5.0,13.0,93,0.02,,---,0.15,VWS V14.01,2013-02-20 19:06:00,
2013-02-20 13:11:00,34.3,32.2,30.05,East,79,6.0,13.0,92,0.02,,---,0.15,VWS V14.01,2013-02-20 19:11:00,
2013-02-20 13:16:00,34.1,32.0,30.05,East,93,9.0,14.0,92,0.02,,---,0.15,VWS V14.01,2013-02-20 19:16:00,
2013-02-20 13:21:00,34.3,32.2,30.05,East,82,12.0,16.0,92,0.02,,---,0.15,VWS V14.01,2013-02-20 19:21:00,
2013-02-20 13:26:00,34.3,32.2,30.03,ESE,110,7.0,12.0,92,0.01,,---,0.15,VWS V14.01,2013-02-20 19:26:00,
2013-02-20 13:30:00,34.1,32.0,30.03,East,92,5.0,12.0,92,0.02,,---,0.16,VWS V14.01,2013-02-20 19:30:00,
2013-02-20 13:32:00,34.1,32.0,30.03,SE,124,10.0,16.0,92,0.01,,---,0.15,VWS V14.01,2013-02-20 19:32:00,
2013-02-20 13:35:00,34.0,31.9,30.03,East,84,8.0,12.0,92,0.02,,---,0.16,VWS V14.01,2013-02-20 19:35:00,
2013-02-20 13:51:00,33.8,31.7,30.03,East,92,13.0,13.0,92,0.02,,---,0.16,VWS V14.01,2013-02-20 19:51:00,
2013-02-20 13:56:00,33.8,31.7,30.03,East,91,5.0,14.0,92,0.02,,---,0.16,VWS V14.01,2013-02-20 19:56:00,
2013-02-20 14:01:00,34.0,31.9,30.03,ESE,118,5.0,12.0,92,0.02,,---,0.16,VWS V14.01,2013-02-20 20:01:00,
2013-02-20 14:05:00,34.1,32.0,30.02,ESE,110,5.0,12.0,92,0.01,,---,0.16,VWS V14.01,2013-02-20 20:05:00,
2013-02-20 14:06:00,34.0,31.9,30.03,SE,145,4.0,12.0,92,0.01,,---,0.16,VWS V14.01,2013-02-20 20:06:00,
2013-02-20 14:11:00,34.0,31.9,30.02,ENE,68,10.0,13.0,92,0.01,,---,0.16,VWS V14.01,2013-02-20 20:11:00,
2013-02-20 14:21:00,34.3,32.2,30.02,ESE,103,9.0,13.0,92,0.01,,---,0.16,VWS V14.01,2013-02-20 20:21:00,
2013-02-20 14:26:00,34.3,32.2,30.02,East,86,7.0,10.0,92,0.01,,---,0.16,VWS V14.01,2013-02-20 20:26:00,
2013-02-20 14:31:00,34.1,32.0,30.02,East,81,6.0,11.0,92,0.01,,---,0.16,VWS V14.01,2013-02-20 20:31:00,
2013-02-20 14:35:00,34.0,31.9,30.01,ENE,66,6.0,13.0,92,0.01,,---,0.17,VWS V14.01,2013-02-20 20:35:00,
2013-02-20 14:36:00,34.3,32.2,30.02,ENE,59,4.0,11.0,92,0.02,,---,0.17,VWS V14.01,2013-02-20 20:36:00,
2013-02-20 14:41:00,34.1,32.0,30.01,ESE,108,7.0,13.0,92,0.02,,---,0.17,VWS V14.01,2013-02-20 20:41:00,
2013-02-20 14:50:00,34.3,32.2,30.00,East,89,3.0,11.0,92,0.01,,---,0.17,VWS V14.01,2013-02-20 20:50:00,
2013-02-20 14:51:00,34.1,32.0,30.01,ENE,62,5.0,9.0,92,0.01,,---,0.17,VWS V14.01,2013-02-20 20:51:00,
2013-02-20 14:56:00,34.3,32.2,30.00,ENE,71,3.0,11.0,92,0.01,,---,0.17,VWS V14.01,2013-02-20 20:56:00,
2013-02-20 15:00:00,34.3,32.2,29.99,ENE,71,3.0,10.0,92,0.01,,---,0.17,VWS V14.01,2013-02-20 21:00:00,
2013-02-20 15:06:00,34.1,32.0,30.00,ESE,108,7.0,12.0,92,0.01,,---,0.17,VWS V14.01,2013-02-20 21:06:00,
2013-02-20 15:15:00,34.1,32.0,29.99,East,95,7.0,14.0,92,0.01,,---,0.17,VWS V14.01,2013-02-20 21:15:00,
2013-02-20 15:16:00,34.1,32.0,29.99,East,97,9.0,13.0,92,0.01,,---,0.17,VWS V14.01,2013-02-20 21:16:00,
2013-02-20 15:21:00,34.1,32.0,29.99,ESE,104,4.0,12.0,92,0.01,,---,0.17,VWS V14.01,2013-02-20 21:21:00,
2013-02-20 15:31:00,34.3,32.2,29.99,ENE,58,7.0,10.0,92,0.01,,---,0.17,VWS V14.01,2013-02-20 21:31:00,
2013-02-20 15:36:00,34.1,32.0,29.99,East,82,6.0,9.0,92,0.01,,---,0.17,VWS V14.01,2013-02-20 21:36:00,
2013-02-20 15:42:00,34.1,32.0,29.98,ESE,104,4.0,12.0,92,0.00,,---,0.17,VWS V14.01,2013-02-20 21:42:00,
2013-02-20 15:51:00,34.1,32.0,29.98,ENE,77,6.0,13.0,92,0.01,,---,0.18,VWS V14.01,2013-02-20 21:51:00,
2013-02-20 15:56:00,34.1,32.0,29.97,ESE,103,3.0,12.0,92,0.01,,---,0.18,VWS V14.01,2013-02-20 21:56:00,
2013-02-20 16:01:00,34.1,32.0,29.97,ESE,113,13.0,14.0,92,0.01,,---,0.18,VWS V14.01,2013-02-20 22:01:00,
2013-02-20 16:07:00,34.1,32.0,29.97,ESE,102,6.0,13.0,92,0.01,,---,0.18,VWS V14.01,2013-02-20 22:07:00,
2013-02-20 16:11:00,34.1,32.0,29.98,ESE,111,3.0,12.0,92,0.01,,---,0.18,VWS V14.01,2013-02-20 22:11:00,
2013-02-20 16:16:00,34.1,32.0,29.98,ESE,109,11.0,13.0,92,0.01,,---,0.18,VWS V14.01,2013-02-20 22:16:00,
2013-02-20 16:21:00,34.1,32.0,29.98,East,84,6.0,12.0,92,0.01,,---,0.18,VWS V14.01,2013-02-20 22:21:00,
2013-02-20 16:26:00,34.1,32.0,29.97,ENE,76,10.0,12.0,92,0.01,,---,0.18,VWS V14.01,2013-02-20 22:26:00,
2013-02-20 16:31:00,34.1,32.0,29.97,ENE,77,11.0,16.0,92,0.01,,---,0.18,VWS V14.01,2013-02-20 22:31:00,
2013-02-20 16:36:00,34.0,31.9,29.97,East,97,12.0,15.0,92,0.01,,---,0.18,VWS V14.01,2013-02-20 22:36:00,
2013-02-20 16:41:00,34.0,31.9,29.96,NE,53,10.0,15.0,92,0.01,,---,0.18,VWS V14.01,2013-02-20 22:41:00,
2013-02-20 16:46:00,34.0,31.9,29.96,ENE,78,10.0,14.0,92,0.01,,---,0.18,VWS V14.01,2013-02-20 22:46:00,
2013-02-20 16:51:00,34.1,32.0,29.96,ESE,117,5.0,11.0,92,0.00,,---,0.18,VWS V14.01,2013-02-20 22:51:00,
2013-02-20 16:57:00,34.3,32.2,29.96,ENE,76,9.0,15.0,92,0.01,,---,0.19,VWS V14.01,2013-02-20 22:57:00,
2013-02-20 17:06:00,34.3,32.2,29.96,East,99,5.0,16.0,92,0.01,,---,0.19,VWS V14.01,2013-02-20 23:06:00,
2013-02-20 17:11:00,34.1,32.0,29.95,ESE,106,9.0,16.0,92,0.01,,---,0.19,VWS V14.01,2013-02-20 23:11:00,
2013-02-20 17:16:00,34.1,32.0,29.95,ESE,119,7.0,14.0,92,0.01,,---,0.19,VWS V14.01,2013-02-20 23:16:00,
2013-02-20 17:21:00,34.1,32.0,29.95,ENE,75,9.0,14.0,92,0.01,,---,0.19,VWS V14.01,2013-02-20 23:21:00,
2013-02-20 17:27:00,34.0,31.9,29.94,ESE,103,5.0,14.0,92,0.01,,---,0.19,VWS V14.01,2013-02-20 23:27:00,
2013-02-20 17:31:00,34.0,31.9,29.94,ESE,108,3.0,15.0,92,0.01,,---,0.19,VWS V14.01,2013-02-20 23:31:00,
2013-02-20 17:41:00,34.0,31.9,29.93,ENE,69,6.0,15.0,92,0.01,,---,0.19,VWS V14.01,2013-02-20 23:41:00,
2013-02-20 17:46:00,34.0,31.9,29.93,ESE,121,4.0,14.0,92,0.01,,---,0.19,VWS V14.01,2013-02-20 23:46:00,
2013-02-20 17:52:00,33.8,31.7,29.93,SSE,152,11.0,16.0,92,0.01,,---,0.19,VWS V14.01,2013-02-20 23:52:00,
2013-02-20 17:57:00,33.8,31.7,29.93,ESE,111,7.0,15.0,92,0.01,,---,0.19,VWS V14.01,2013-02-20 23:57:00,
2013-02-20 18:01:00,33.8,31.7,29.93,East,79,7.0,16.0,92,0.00,,---,0.19,VWS V14.01,2013-02-21 00:01:00,
2013-02-20 18:06:00,33.8,31.7,29.93,East,83,4.0,13.0,92,0.01,,---,0.20,VWS V14.01,2013-02-21 00:06:00,
2013-02-20 18:11:00,33.7,31.6,29.93,ESE,110,14.0,15.0,92,0.01,,---,0.20,VWS V14.01,2013-02-21 00:11:00,
2013-02-20 18:16:00,33.7,31.6,29.93,East,82,7.0,17.0,92,0.01,,---,0.20,VWS V14.01,2013-02-21 00:16:00,
2013-02-20 18:21:00,33.7,31.6,29.93,East,79,5.0,13.0,92,0.01,,---,0.20,VWS V14.01,2013-02-21 00:21:00,
2013-02-20 18:26:00,33.8,31.7,29.93,ESE,118,9.0,10.0,92,0.01,,---,0.20,VWS V14.01,2013-02-21 00:26:00,
2013-02-20 18:31:00,33.8,31.7,29.93,East,92,9.0,14.0,92,0.01,,---,0.20,VWS V14.01,2013-02-21 00:31:00,
2013-02-20 18:36:00,33.8,31.7,29.93,East,98,13.0,17.0,92,0.01,,---,0.20,VWS V14.01,2013-02-21 00:36:00,
2013-02-20 18:41:00,33.8,31.7,29.93,ESE,114,13.0,14.0,92,0.01,,---,0.20,VWS V14.01,2013-02-21 00:41:00,
2013-02-20 18:46:00,33.8,31.7,29.93,East,98,5.0,17.0,92,0.01,,---,0.20,VWS V14.01,2013-02-21 00:46:00,
2013-02-20 18:51:00,33.8,31.7,29.93,ESE,115,6.0,16.0,92,0.01,,---,0.20,VWS V14.01,2013-02-21 00:51:00,
2013-02-20 18:56:00,33.8,31.7,29.94,ESE,115,6.0,14.0,92,0.01,,---,0.20,VWS V14.01,2013-02-21 00:56:00,
2013-02-20 19:01:00,33.8,31.7,29.94,ESE,116,6.0,15.0,92,0.01,,---,0.20,VWS V14.01,2013-02-21 01:01:00,
2013-02-20 19:07:00,33.8,31.7,29.94,ESE,118,6.0,13.0,92,0.01,,---,0.20,VWS V14.01,2013-02-21 01:07:00,
2013-02-20 19:11:00,33.8,31.7,29.94,ESE,103,5.0,13.0,92,0.00,,---,0.20,VWS V14.01,2013-02-21 01:11:00,
2013-02-20 19:16:00,33.8,31.7,29.94,ESE,112,4.0,12.0,92,0.00,,---,0.20,VWS V14.01,2013-02-21 01:16:00,
2013-02-20 19:21:00,33.8,31.7,29.94,East,91,11.0,12.0,92,0.00,,---,0.20,VWS V14.01,2013-02-21 01:21:00,
2013-02-20 19:26:00,34.0,31.9,29.93,East,101,3.0,11.0,92,0.01,,---,0.21,VWS V14.01,2013-02-21 01:26:00,
2013-02-20 19:31:00,33.8,31.7,29.93,ESE,119,11.0,16.0,92,0.01,,---,0.21,VWS V14.01,2013-02-21 01:31:00,
2013-02-20 19:37:00,33.8,31.7,29.93,ESE,112,10.0,15.0,92,0.01,,---,0.21,VWS V14.01,2013-02-21 01:37:00,
2013-02-20 19:41:00,33.8,31.7,29.94,East,96,10.0,13.0,92,0.01,,---,0.21,VWS V14.01,2013-02-21 01:41:00,
2013-02-20 19:46:00,33.8,31.7,29.94,East,79,10.0,15.0,92,0.01,,---,0.21,VWS V14.01,2013-02-21 01:46:00,
2013-02-20 19:51:00,33.8,31.7,29.94,East,94,6.0,12.0,92,0.01,,---,0.21,VWS V14.01,2013-02-21 01:51:00,
2013-02-20 19:57:00,33.8,31.7,29.94,ESE,113,10.0,10.0,92,0.01,,---,0.21,VWS V14.01,2013-02-21 01:57:00,
2013-02-20 20:01:00,33.8,31.7,29.94,East,101,6.0,10.0,92,0.01,,---,0.21,VWS V14.01,2013-02-21 02:01:00,
2013-02-20 20:07:00,33.8,31.7,29.94,ESE,115,6.0,15.0,92,0.01,,---,0.21,VWS V14.01,2013-02-21 02:07:00,
2013-02-20 20:11:00,33.8,31.7,29.94,East,91,6.0,16.0,92,0.01,,---,0.21,VWS V14.01,2013-02-21 02:11:00,
2013-02-20 20:16:00,33.8,32.0,29.94,ESE,108,4.0,10.0,93,0.01,,---,0.21,VWS V14.01,2013-02-21 02:16:00,
2013-02-20 20:21:00,33.8,31.7,29.94,ESE,107,7.0,10.0,92,0.01,,---,0.21,VWS V14.01,2013-02-21 02:21:00,
2013-02-20 20:26:00,33.8,31.7,29.94,East,96,7.0,10.0,92,0.01,,---,0.21,VWS V14.01,2013-02-21 02:26:00,
2013-02-20 20:32:00,33.8,31.7,29.94,ENE,77,7.0,12.0,92,0.00,,---,0.21,VWS V14.01,2013-02-21 02:32:00,
2013-02-20 20:36:00,33.8,31.7,29.94,ESE,110,4.0,11.0,92,0.00,,---,0.21,VWS V14.01,2013-02-21 02:36:00,
2013-02-20 20:41:00,33.8,31.7,29.93,ENE,69,5.0,10.0,92,0.00,,---,0.21,VWS V14.01,2013-02-21 02:41:00,
2013-02-20 20:46:00,33.8,31.7,29.93,ESE,102,3.0,14.0,92,0.00,,---,0.21,VWS V14.01,2013-02-21 02:46:00,
2013-02-20 20:51:00,33.8,32.0,29.93,East,94,9.0,10.0,93,0.00,,---,0.21,VWS V14.01,2013-02-21 02:51:00,
2013-02-20 20:57:00,33.8,32.0,29.94,East,84,2.0,9.0,93,0.01,,---,0.22,VWS V14.01,2013-02-21 02:57:00,
2013-02-20 21:01:00,33.8,32.0,29.94,East,79,4.0,12.0,93,0.01,,---,0.22,VWS V14.01,2013-02-21 03:01:00,
2013-02-20 21:06:00,33.8,32.0,29.94,East,91,3.0,11.0,93,0.01,,---,0.22,VWS V14.01,2013-02-21 03:06:00,
2013-02-20 21:12:00,34.0,32.2,29.93,ESE,107,6.0,10.0,93,0.01,,---,0.22,VWS V14.01,2013-02-21 03:12:00,
2013-02-20 21:22:00,34.0,32.2,29.93,East,91,4.0,14.0,93,0.01,,---,0.22,VWS V14.01,2013-02-21 03:22:00,
2013-02-20 21:26:00,34.0,32.2,29.92,East,86,10.0,12.0,93,0.01,,---,0.22,VWS V14.01,2013-02-21 03:26:00,
2013-02-20 21:32:00,34.0,32.2,29.92,East,94,7.0,13.0,93,0.01,,---,0.22,VWS V14.01,2013-02-21 03:32:00,
2013-02-20 21:42:00,34.0,32.2,29.92,East,82,2.0,12.0,93,0.01,,---,0.22,VWS V14.01,2013-02-21 03:42:00,
2013-02-20 21:46:00,34.0,32.2,29.92,ENE,69,10.0,14.0,93,0.01,,---,0.22,VWS V14.01,2013-02-21 03:46:00,
2013-02-20 21:52:00,34.0,32.2,29.92,ENE,70,13.0,13.0,93,0.01,,---,0.22,VWS V14.01,2013-02-21 03:52:00,
2013-02-20 22:01:00,34.0,31.9,29.91,East,91,10.0,15.0,92,0.00,,---,0.22,VWS V14.01,2013-02-21 04:01:00,
2013-02-20 22:07:00,34.0,31.9,29.91,ESE,104,12.0,16.0,92,0.01,,---,0.23,VWS V14.01,2013-02-21 04:07:00,
2013-02-20 22:12:00,34.1,32.0,29.91,ESE,122,6.0,13.0,92,0.01,,---,0.23,VWS V14.01,2013-02-21 04:12:00,
2013-02-20 22:21:00,34.0,31.9,29.91,ESE,115,11.0,14.0,92,0.01,,---,0.23,VWS V14.01,2013-02-21 04:21:00,
2013-02-20 22:27:00,34.1,32.0,29.91,East,84,5.0,16.0,92,0.01,,---,0.23,VWS V14.01,2013-02-21 04:27:00,
2013-02-20 22:32:00,34.0,31.9,29.91,ENE,78,3.0,13.0,92,0.01,,---,0.23,VWS V14.01,2013-02-21 04:32:00,
2013-02-20 22:41:00,34.0,31.9,29.90,East,79,4.0,19.0,92,0.01,,---,0.23,VWS V14.01,2013-02-21 04:41:00,
2013-02-20 22:46:00,34.0,31.9,29.90,East,93,10.0,13.0,92,0.01,,---,0.23,VWS V14.01,2013-02-21 04:46:00,
2013-02-20 22:50:00,34.0,31.9,29.89,East,101,2.0,16.0,92,0.01,,---,0.23,VWS V14.01,2013-02-21 04:50:00,
2013-02-20 22:51:00,34.0,31.9,29.90,ENE,74,5.0,15.0,92,0.01,,---,0.23,VWS V14.01,2013-02-21 04:51:00,
2013-02-20 22:55:00,34.1,32.0,29.89,East,100,10.0,13.0,92,0.01,,---,0.23,VWS V14.01,2013-02-21 04:55:00,
2013-02-20 22:56:00,34.1,32.0,29.89,ENE,77,4.0,13.0,92,0.01,,---,0.23,VWS V14.01,2013-02-21 04:56:00,
2013-02-20 23:00:00,34.0,31.6,29.89,ESE,103,9.0,13.0,91,0.00,,---,0.23,VWS V14.01,2013-02-21 05:00:00,
2013-02-20 23:05:00,34.0,31.6,29.89,ESE,110,10.0,12.0,91,0.00,,---,0.23,VWS V14.01,2013-02-21 05:05:00,
2013-02-20 23:10:00,34.0,31.6,29.89,ESE,103,7.0,14.0,91,0.00,,---,0.23,VWS V14.01,2013-02-21 05:10:00,
2013-02-20 23:15:00,34.0,31.6,29.88,ENE,72,10.0,13.0,91,0.00,,---,0.23,VWS V14.01,2013-02-21 05:15:00,
2013-02-20 23:20:00,33.8,31.5,29.88,East,93,7.0,16.0,91,0.00,,---,0.23,VWS V14.01,2013-02-21 05:20:00,
2013-02-20 23:25:00,33.8,31.5,29.88,East,89,4.0,13.0,91,0.00,,---,0.23,VWS V14.01,2013-02-21 05:25:00,
2013-02-20 23:30:00,33.8,31.5,29.86,NNE,25,11.0,15.0,91,0.01,,---,0.24,VWS V14.01,2013-02-21 05:30:00,
2013-02-20 23:35:00,33.8,31.5,29.86,ESE,103,6.0,15.0,91,0.01,,---,0.24,VWS V14.01,2013-02-21 05:35:00,
2013-02-20 23:40:00,33.8,31.5,29.86,East,91,6.0,12.0,91,0.01,,---,0.24,VWS V14.01,2013-02-21 05:40:00,
2013-02-20 23:45:00,33.8,31.5,29.85,East,89,2.0,10.0,91,0.01,,---,0.24,VWS V14.01,2013-02-21 05:45:00,
2013-02-20 23:50:00,33.7,31.4,29.85,ENE,67,11.0,14.0,91,0.01,,---,0.24,VWS V14.01,2013-02-21 05:50:00,
2013-02-20 23:55:00,33.7,31.4,29.85,ESE,109,7.0,11.0,91,0.01,,---,0.24,VWS V14.01,2013-02-21 05:55:00,